Logo AVAMET
Benvolgut visitant, si us plau, ingressa Recuperar contrasenya

Borriana Platja del Grau

Dades diàries. Acumulats / Últims 30 dies disponibles

Data Temperatura (°C) Humitat rel. (%) Pressió rel. (hPa) Vent (km/h) Precipitació
Mínima Mitjana Màxima Amplitud
tèrmica
Mínima Mitjana Màxima Mínima Mitjana Màxima Predom. Mitjana Ràfega
màxima
Total
(mm)
Índex-n
Mínima Mitjana Màxima Mínima Mitjana Màxima n
0 a 1
P0 max
mm 5'
Dades mensuals acumulades fins l'últim dia disponible
01/2020 3,6 5,8 8,4 9,5 11,6 13,6 15,3 11,7 48 78 94 1.024 1.032 1.037   12,4 64,8 0,0
Dades anuals acumulades fins l'últim dia disponible
2020 3,6 5,8 8,4 9,5 11,6 13,6 15,3 11,7 48 78 94 1.024 1.032 1.037   12,4 64,8 0,0
Últims 30 dies disponibles
14-01-2020 3,7     8,2     12,8 9,1 50 72 86 1.024 1.025 1.027 SO 11,4 25,9 0,0
13-01-2020 3,6     7,6     11,6 8,0 60 71 83 1.025 1.028 1.033 SO 10,3 24,1 0,0
12-01-2020 4,8     8,4     12,2 7,4 57 75 90 1.032 1.033 1.035 SSO 12,4 31,5 0,0
11-01-2020 6,0     10,3     15,2 9,2 48 67 81 1.031 1.033 1.035 OSO 16,4 40,7 0,0
10-01-2020 7,7     10,9     14,9 7,2 50 73 89 1.026 1.029 1.032 O 17,6 64,8 0,0
09-01-2020 6,5     9,9     13,7 7,2 69 82 88 1.027 1.031 1.034 SO 14,0 24,1 0,0
08-01-2020 5,7     10,0     15,3 9,6 68 85 94 1.031 1.033 1.036 OSO 11,2 27,8 0,0
07-01-2020 5,3     9,2     13,0 7,7 71 83 90 1.032 1.034 1.035 OSO 12,5 24,1 0,0
06-01-2020 5,8     9,5     14,3 8,5 66 80 89 1.031 1.033 1.034 SO 12,0 29,6 0,0
05-01-2020 5,9     9,8     14,0 8,1 60 74 88 1.030 1.032 1.035 OSO 12,5 32,2 0,0
04-01-2020 5,6     9,9     13,7 8,1 68 80 91 1.035 1.035 1.037 OSO 12,0 25,9 0,0
03-01-2020 5,9     9,4     13,3 7,4 77 83 90 1.033 1.034 1.036 SO 10,6 29,6 0,0
02-01-2020 8,4     10,5     12,9 4,5 74 82 90 1.034 1.035 1.037 OSO 8,5 27,8 0,0
01-01-2020 6,1     9,6     12,8 6,7 81 87 91 1.034 1.035 1.037 SSO 11,8 25,9 0,0
31-12-2019 7,1     9,8     12,7 5,6 77 85 91 1.035 1.036 1.038 OSO 11,3 25,9 0,0
30-12-2019 7,8     10,9     13,8 6,0 71 80 88 1.035 1.036 1.038 OSO 11,9 27,8 0,0
29-12-2019 6,8     10,0     14,0 7,2 69 78 88 1.034 1.035 1.037 OSO 13,7 35,4 0,0
28-12-2019 5,4     9,4     14,3 8,9 58 77 91 1.032 1.034 1.036 OSO 11,7 27,8 0,0
27-12-2019 7,6     11,2     15,3 7,7 49 73 91 1.031 1.032 1.033 SO 10,4 27,8 0,0
26-12-2019 8,6     13,4     17,0 8,4 70 83 93 1.025 1.028 1.033 SO 4,9 18,5 0,0
25-12-2019 10,2     13,8     17,3 7,1 60 83 94 1.026 1.027 1.029 S 6,3 32,2 0,0
24-12-2019 11,8     15,1     18,0 6,2 62 74 91 1.028 1.029 1.030 SSO 7,2 22,5 0,0
23-12-2019 10,7     15,4     19,6 8,9 42 56 73 1.021 1.026 1.029 OSO 10,9 75,9 0,0
22-12-2019 17,2     19,1     21,4 4,2 42 52 63 1.008 1.014 1.020 SO 16,2 68,5 0,0
21-12-2019 16,8     20,9     25,3 8,5 44 63 81 1.001 1.004 1.008 SSO 24,5 69,2 0,0
20-12-2019 12,8     18,1     22,4 9,6 50 72 86 1.000 1.004 1.010 S 25,6 68,5 0,0
19-12-2019 8,5     11,9     15,1 6,6 72 81 88 1.010 1.017 1.021 SO 12,9 37,0 0,0
18-12-2019 10,1     11,2     20,0 9,9 69 88 90 1.018 1.021 1.022 ONO 13,6 50,0 0,0
14-12-2019 12,7     16,3     20,0 7,3 48 63 83 1.015 1.017 1.018 SSO 9,9 50,0 0,0
13-12-2019 14,6     19,3     23,1 8,5 46 60 76 1.007 1.010 1.015 SO 23,3 59,5 0,0
Últims 13 mesos disponibles
12/2019 5,4 10,1 17,2 13,3 12,7 16,9 25,3 19,9 52 75 94 1.004 1.022 1.036 SO 13,4 79,6 68,0
11/2019 6,8 12,0 19,2 15,6 13,9 19,3 27,4 20,6 45 61 82 1.000 1.013 1.020 SO 13,3 80,4 2,2
10/2019 10,3 15,7 20,0 19,3 15,3 22,7 27,4 17,1 59 76 88 1.009 1.019 1.024 ESE 13,1 68,5 14,8
09/2019 14,5 19,6 22,4 22,7 24,0 25,7 30,8 16,3 58 79 88 1.012 1.020 1.028 ESE 14,7 93,3 61,0
08/2019 17,2 21,5 24,2 24,8 25,5 27,4 30,1 12,9 62 80 89 1.013 1.018 1.023 S 11,3 93,3 16,8
07/2019 20,4 21,8 23,4 25,1 26,1 27,4 29,4 9,0 61 77 87 1.008 1.017 1.024 S 12,4 64,8 15,4
06/2019 11,5 17,9 22,3 21,0 19,0 23,4 28,5 17,0 62 76 88 1.010 1.019 1.025 S 12,6 69,2 0,0
05/2019 8,8 14,2 17,3 17,2 15,7 20,0 27,8 19,0 64 78 86 1.012 1.019 1.027 S 13,0 51,8 9,8
04/2019 8,5 11,4 15,3 14,5 14,7 17,6 22,8 14,3 51 73 95 1.002 1.016 1.028 SSO 17,1 77,7 21,8
03/2019 6,8 9,7 13,3 13,4 13,1 16,9 24,3 17,5 47 70 96 1.013 1.025 1.033 SSO 12,9 55,5 7,4
02/2019 4,1 7,5 11,7 11,3 8,7 14,7 19,6 15,5 31 72 85 996 1.027 1.037 SSO 12,9 111,0 0,0
01/2019 3,7 6,4 10,8 10,8 11,2 15,2 22,2 18,5 39 63 79 1.003 1.021 1.033 OSO 14,3 99,9 2,0
12/2018 5,7 9,0 12,8 12,5 9,6 16,1 21,3 15,6 52 76 86 1.022 1.029 1.033 OSO 10,9 45,0
Tots els anys disponibles
2019 3,7 14,0 24,2 17,4 8,7 20,6 30,8 27,1 31 73 96 996 1.020 1.037 SSO 13,5 111,0 219,2
2018 1,3 14,3 27,1 17,6 7,7 20,7 32,4 31,1 33 74 96 995 1.018 1.038 SO 13,1 88,8 454,6
Temperatura (°C)
Humitat relativa (%)
Velocitat del vent i ràfega màxima (km/h)
Direcció del vent (°)
Pressió (hPa)
Precipitació (mm)
Nota sobre les dades: s'avisa a l'usuari de la provisionalitat i no oficialitat d'aquestes dades
Logo AVAMET blanc
Web allotjada a Sollutia
Llicència de Creative CommonsLa web d'AVAMET i els seus continguts estan subjectes a una llicència de
Reconeixement - No Comercial - Compartir igual
Últimes estacions: Llíria (Aj. Soci/Inforatge), Orihuela - Las Norias, Orihuela - Lo Capitán, Cox & Guardamar del Segura - horta (Meteorihuela), l'Alcúdia - Carriona & el Real de Gandia (Inforatge), Benicàssim - les Vil·les (Soci),  l'Alfàs del Pi - l'Albir (Soci), Xixona - Segorb-Vistabella (Soci), - - -